首页
METAR-TAF:

METAR-TAF

机场 :

查塔努加, 田纳西州, 美国

纬度: 35-02-00N, 经度: 085-12-00W, 海拔: 207米

当前天气观测

该预报发布于29分钟前的23:53 UTC
风速4节,风向东南
温度 26°C
湿度 61%
气压 1016 hPa
能見度: 16.1公里
散云层高于5500英尺
散云层高于12000英尺
散云层高于16000英尺
多云层高于25000英尺

METAR: KCHA 262353Z 14004KT 10SM SCT055 SCT120 SCT160 BKN250 26/18 A2999 RMK AO2 SLP148 T02560178 10278 20256 56005

时间: 20:22 (00:22 UTC)

预报

该预报发布于1小时和2分钟前的23:20 UTC
预报有效从27日的 00点(UTC)到 27日的 24点(UTC)
风速6节,风向南转南东
能見度: 10公里
少量云层高于4000英尺
多云层高于9000英尺
从 27日的 0900点(UTC)
风速3节,风向
能見度: 10公里
多云层高于2000英尺
从 27日的 1400点(UTC)
风速5节,风向东南
能見度: 10公里
散云层高于2500英尺
多云层高于4000英尺
附近有阵雨
从 27日的 1700点(UTC)
风速6节,风向东转东南
能見度: 10公里
散云层高于4000英尺
多云层高于10000英尺
从 27日的 2100点(UTC)
风速8节,风向南转南东
能見度: 10公里
多云层高于3500英尺, 积雨云.
附近有雷暴

TAF: KCHA 262320Z 2700/2724 15006KT P6SM FEW040 BKN090 FM270900 10003KT P6SM BKN020 FM271400 13005KT P6SM VCSH SCT025 BKN040 FM271700 12006KT P6SM SCT040 BKN100 FM272100 15008KT P6SM VCTS BKN035CB

超过4000个机场的气象观测和天气预报(METAR&TAF报告)。

可查询的气象台以黄色和红色小点在地图上表示。

将鼠标移到小点上方,可查看气象台名称。

然后点击查看天气观测和预报。

如需切换地图:点击带黑十字的绿色按钮放大地图;点击带横线的绿色按钮缩小地图;或者点击绿色箭头查看邻近地区的地图。


METAR-TAF: